createdAt,value
2022-07-28T00:01:09.322Z,100368.60
2022-07-28T00:03:40.091Z,100364.27
2022-07-28T00:06:10.938Z,100360.86
2022-07-28T00:08:41.631Z,100366.57
2022-07-28T00:11:12.330Z,100363.84
2022-07-28T00:13:43.163Z,100367.98
2022-07-28T00:16:13.894Z,100371.54
2022-07-28T00:18:45.587Z,100379.90
2022-07-28T00:21:16.280Z,100379.91
2022-07-28T00:23:47.030Z,100380.38
2022-07-28T00:26:17.714Z,100386.13
2022-07-28T00:28:48.506Z,100385.38
2022-07-28T00:31:19.224Z,100384.48
2022-07-28T00:33:50.005Z,100382.45
2022-07-28T00:36:24.584Z,100381.93
2022-07-28T00:38:56.719Z,100388.58
2022-07-28T00:41:27.435Z,100390.15
2022-07-28T00:43:58.078Z,100387.13
2022-07-28T00:46:28.997Z,100387.85
2022-07-28T00:48:59.831Z,100394.30
2022-07-28T00:51:30.580Z,100394.95
2022-07-28T00:54:01.269Z,100397.88
2022-07-28T00:56:31.924Z,100397.69
2022-07-28T00:59:02.845Z,100392.41
2022-07-28T01:01:33.659Z,100394.60
2022-07-28T01:04:04.625Z,100394.07
2022-07-28T01:06:40.125Z,100397.50
2022-07-28T01:09:12.799Z,100394.63
2022-07-28T01:11:47.157Z,100396.25
2022-07-28T01:14:20.061Z,100393.10
2022-07-28T01:16:51.785Z,100398.97
2022-07-28T01:19:30.167Z,100403.67
2022-07-28T01:22:00.861Z,100403.19
2022-07-28T01:24:32.749Z,100407.35
2022-07-28T01:27:04.754Z,100410.06
2022-07-28T01:29:59.947Z,100409.14
2022-07-28T01:32:32.117Z,100412.67
2022-07-28T01:35:04.878Z,100405.52
2022-07-28T01:37:36.713Z,100407.67
2022-07-28T01:40:08.877Z,100403.20
2022-07-28T01:42:41.047Z,100405.36
2022-07-28T01:45:12.640Z,100402.88
2022-07-28T01:47:43.841Z,100406.08
2022-07-28T01:50:15.387Z,100410.36
2022-07-28T01:52:46.175Z,100409.89
2022-07-28T01:55:16.822Z,100409.19
2022-07-28T01:57:47.508Z,100406.27
2022-07-28T02:00:18.783Z,100405.45
2022-07-28T02:02:49.884Z,100407.14
2022-07-28T02:05:21.672Z,100406.55
2022-07-28T02:07:53.004Z,100405.51
2022-07-28T02:10:23.741Z,100409.05
2022-07-28T02:12:54.426Z,100410.54
2022-07-28T02:15:25.293Z,100414.20
2022-07-28T02:17:55.919Z,100419.55
2022-07-28T02:20:26.473Z,100426.92
2022-07-28T02:22:57.187Z,100431.21
2022-07-28T02:25:27.939Z,100431.59
2022-07-28T02:28:00.235Z,100433.26
2022-07-28T02:30:32.270Z,100436.23
2022-07-28T02:33:03.935Z,100438.65
2022-07-28T02:35:38.219Z,100434.91
2022-07-28T02:38:11.769Z,100438.06
2022-07-28T02:40:42.589Z,100440.91
2022-07-28T02:43:14.962Z,100446.25
2022-07-28T02:45:47.513Z,100441.02
2022-07-28T02:48:19.228Z,100444.50
2022-07-28T02:50:49.886Z,100446.13
2022-07-28T02:53:20.619Z,100446.94
2022-07-28T02:55:51.630Z,100449.02
2022-07-28T02:58:23.140Z,100452.23
2022-07-28T03:00:54.734Z,100451.59
2022-07-28T03:03:25.419Z,100444.90
2022-07-28T03:05:56.153Z,100446.63
2022-07-28T03:08:26.965Z,100448.13
2022-07-28T03:11:09.304Z,100447.30
2022-07-28T03:13:40.069Z,100442.27
2022-07-28T03:16:10.813Z,100442.21
2022-07-28T03:18:41.481Z,100439.68
2022-07-28T03:21:12.760Z,100444.39
2022-07-28T03:23:44.237Z,100449.27
2022-07-28T03:26:17.241Z,100450.13
2022-07-28T03:28:48.072Z,100451.25
2022-07-28T03:31:18.825Z,100459.12
2022-07-28T03:33:49.652Z,100459.96
2022-07-28T03:36:20.647Z,100465.39
2022-07-28T03:38:54.127Z,100467.88
2022-07-28T03:41:24.924Z,100467.73
2022-07-28T03:43:55.826Z,100471.10
2022-07-28T03:46:27.954Z,100471.59
2022-07-28T03:48:58.748Z,100474.38
2022-07-28T03:51:29.765Z,100480.33
2022-07-28T03:54:00.490Z,100478.80
2022-07-28T03:56:31.292Z,100481.00
2022-07-28T03:59:01.989Z,100481.81
2022-07-28T04:01:32.747Z,100485.16
2022-07-28T04:04:03.441Z,100490.46
2022-07-28T04:06:34.213Z,100489.13
2022-07-28T04:09:04.997Z,100500.38
2022-07-28T04:11:35.715Z,100500.36
2022-07-28T04:14:06.345Z,100505.65
2022-07-28T04:16:37.581Z,100510.38
2022-07-28T04:19:08.461Z,100514.98
2022-07-28T04:21:39.279Z,100518.14
2022-07-28T04:24:12.209Z,100522.37
2022-07-28T04:26:44.020Z,100522.67
2022-07-28T04:29:15.042Z,100526.31
2022-07-28T04:31:54.707Z,100529.69
2022-07-28T04:34:25.640Z,100527.71
2022-07-28T04:36:56.751Z,100529.69
2022-07-28T04:39:27.360Z,100530.91
2022-07-28T04:41:58.017Z,100532.73
2022-07-28T04:44:28.701Z,100532.83
2022-07-28T04:46:59.396Z,100529.89
2022-07-28T04:49:30.111Z,100535.57
2022-07-28T04:52:08.376Z,100537.86
2022-07-28T04:54:39.227Z,100542.64
2022-07-28T04:57:12.908Z,100540.17
2022-07-28T04:59:45.934Z,100542.52
2022-07-28T05:02:19.140Z,100544.13
2022-07-28T05:04:49.849Z,100539.13
2022-07-28T05:07:20.824Z,100545.08
2022-07-28T05:09:51.504Z,100550.13
2022-07-28T05:12:22.194Z,100551.12
2022-07-28T05:14:52.797Z,100563.93
2022-07-28T05:17:23.460Z,100565.84
2022-07-28T05:19:54.182Z,100577.36
2022-07-28T05:22:25.033Z,100586.14
2022-07-28T05:24:55.724Z,100598.09
2022-07-28T05:27:26.371Z,100610.84
2022-07-28T05:29:57.008Z,100616.63
2022-07-28T05:32:27.710Z,100617.41
2022-07-28T05:34:59.589Z,100610.79
2022-07-28T05:37:30.457Z,100609.32
2022-07-28T05:40:01.149Z,100603.71
2022-07-28T05:42:36.055Z,100604.73
2022-07-28T05:45:15.585Z,100603.47
2022-07-28T05:47:48.409Z,100599.39
2022-07-28T05:50:19.455Z,100609.70
2022-07-28T05:52:51.508Z,100607.67
2022-07-28T05:55:22.420Z,100613.61
2022-07-28T05:57:54.314Z,100611.27
2022-07-28T06:00:25.132Z,100611.96
2022-07-28T06:02:55.837Z,100606.85
2022-07-28T06:05:27.218Z,100597.85
2022-07-28T06:07:58.003Z,100595.86
2022-07-28T06:10:49.068Z,100592.21
2022-07-28T06:13:20.199Z,100600.64
2022-07-28T06:15:52.767Z,100603.94
2022-07-28T06:18:23.419Z,100607.98
2022-07-28T06:20:54.179Z,100607.94
2022-07-28T06:23:24.892Z,100611.66
2022-07-28T06:25:55.597Z,100614.18
2022-07-28T06:28:26.305Z,100617.99
2022-07-28T06:30:57.050Z,100626.18
2022-07-28T06:33:27.761Z,100629.23
2022-07-28T06:35:58.504Z,100632.43
2022-07-28T06:38:29.334Z,100635.18
2022-07-28T06:41:00.435Z,100636.17
2022-07-28T06:43:33.187Z,100634.69
2022-07-28T06:46:06.197Z,100632.89
2022-07-28T06:48:39.589Z,100632.70
2022-07-28T06:51:10.397Z,100630.20
2022-07-28T06:53:43.547Z,100637.89
2022-07-28T06:56:21.619Z,100637.10
2022-07-28T06:58:54.115Z,100635.84
2022-07-28T07:01:24.761Z,100638.52
2022-07-28T07:03:55.547Z,100644.24
2022-07-28T07:06:26.293Z,100645.94
2022-07-28T07:08:57.104Z,100649.40
2022-07-28T07:11:27.778Z,100651.75
2022-07-28T07:13:58.669Z,100648.93
2022-07-28T07:16:29.447Z,100649.67
2022-07-28T07:19:00.261Z,100650.92
2022-07-28T07:21:37.816Z,100650.07
2022-07-28T07:24:09.403Z,100648.20
2022-07-28T07:26:40.166Z,100644.61
2022-07-28T07:29:10.997Z,100637.17
2022-07-28T07:31:41.791Z,100631.00
2022-07-28T07:34:12.783Z,100631.77
2022-07-28T07:36:43.900Z,100629.75
2022-07-28T07:39:14.596Z,100626.09
2022-07-28T07:41:45.317Z,100626.32
2022-07-28T07:44:17.147Z,100625.15
2022-07-28T07:46:48.239Z,100621.69
2022-07-28T07:49:19.282Z,100623.20
2022-07-28T07:51:50.170Z,100628.82
2022-07-28T07:54:22.093Z,100628.69
2022-07-28T07:56:52.784Z,100627.19
2022-07-28T07:59:23.533Z,100627.34
2022-07-28T08:01:55.487Z,100630.20
2022-07-28T08:04:26.315Z,100629.49
2022-07-28T08:06:59.512Z,100630.38
2022-07-28T08:09:30.959Z,100635.27
2022-07-28T08:12:01.753Z,100638.73
2022-07-28T08:14:32.470Z,100641.98
2022-07-28T08:17:03.230Z,100644.80
2022-07-28T08:19:33.896Z,100644.73
2022-07-28T08:22:04.620Z,100647.19
2022-07-28T08:24:35.509Z,100651.02
2022-07-28T08:27:06.590Z,100650.98
2022-07-28T08:29:37.155Z,100649.85
2022-07-28T08:32:08.388Z,100654.58
2022-07-28T08:34:39.081Z,100654.38
2022-07-28T08:37:09.733Z,100656.39
2022-07-28T08:39:40.432Z,100659.19
2022-07-28T08:42:13.752Z,100657.19
2022-07-28T08:44:46.432Z,100660.56
2022-07-28T08:47:17.115Z,100663.27
2022-07-28T08:49:49.158Z,100668.76
2022-07-28T08:52:20.452Z,100669.02
2022-07-28T08:54:51.343Z,100670.05
2022-07-28T08:57:22.572Z,100671.15
2022-07-28T08:59:53.208Z,100672.55
2022-07-28T09:02:26.346Z,100682.34
2022-07-28T09:04:57.860Z,100681.58
2022-07-28T09:07:29.285Z,100689.27
2022-07-28T09:10:02.814Z,100688.55
2022-07-28T09:12:33.889Z,100691.91
2022-07-28T09:15:04.809Z,100692.95
2022-07-28T09:17:35.850Z,100693.61
2022-07-28T09:20:10.865Z,100688.98
2022-07-28T09:25:41.407Z,100684.58
2022-07-28T09:28:12.479Z,100685.13
2022-07-28T09:30:53.469Z,100680.84
2022-07-28T09:33:42.870Z,100681.84
2022-07-28T09:36:16.886Z,100682.09
2022-07-28T09:38:47.580Z,100677.16
2022-07-28T09:41:22.042Z,100678.55
2022-07-28T09:43:55.157Z,100678.73
2022-07-28T09:46:29.465Z,100682.05
2022-07-28T09:49:01.500Z,100680.90
2022-07-28T09:51:33.599Z,100681.80
2022-07-28T09:54:14.429Z,100684.95
2022-07-28T09:56:46.079Z,100687.05
2022-07-28T09:59:18.262Z,100686.18
2022-07-28T10:01:56.559Z,100684.70
2022-07-28T10:04:35.057Z,100685.80
2022-07-28T10:07:11.561Z,100678.11
2022-07-28T10:09:42.340Z,100674.66
2022-07-28T10:12:20.119Z,100666.53
2022-07-28T10:14:52.031Z,100674.77
2022-07-28T10:17:31.348Z,100679.32
2022-07-28T10:20:02.498Z,100683.73
2022-07-28T10:22:37.253Z,100679.36
2022-07-28T10:25:12.718Z,100681.27
2022-07-28T10:27:44.138Z,100676.12
2022-07-28T10:30:15.635Z,100670.70
2022-07-28T10:32:47.161Z,100672.48
2022-07-28T10:35:18.410Z,100669.62
2022-07-28T10:37:53.677Z,100672.24
2022-07-28T10:40:27.413Z,100668.35
2022-07-28T10:42:58.115Z,100664.54
2022-07-28T10:45:48.017Z,100669.21
2022-07-28T10:48:23.631Z,100667.61
2022-07-28T10:50:54.897Z,100660.36
2022-07-28T10:53:28.221Z,100661.15
2022-07-28T10:56:01.186Z,100661.26
2022-07-28T10:58:34.774Z,100662.57
2022-07-28T11:01:06.566Z,100659.76
2022-07-28T11:03:40.490Z,100659.29
2022-07-28T11:06:27.932Z,100654.65
2022-07-28T11:08:59.012Z,100654.27
2022-07-28T11:11:45.171Z,100655.66
2022-07-28T11:14:34.056Z,100655.75
2022-07-28T11:17:15.518Z,100658.97
2022-07-28T11:22:49.310Z,100660.36
2022-07-28T11:25:22.538Z,100660.25
2022-07-28T11:28:11.987Z,100656.80
2022-07-28T11:30:53.593Z,100655.44
2022-07-28T11:33:27.613Z,100651.04
2022-07-28T11:35:59.379Z,100645.17
2022-07-28T11:38:30.104Z,100639.48
2022-07-28T11:41:00.899Z,100638.13
2022-07-28T11:43:37.608Z,100635.20
2022-07-28T11:46:31.849Z,100640.79
2022-07-28T11:49:25.084Z,100649.29
2022-07-28T11:52:15.432Z,100644.48
2022-07-28T11:54:51.858Z,100644.59
2022-07-28T11:57:24.510Z,100650.60
2022-07-28T12:00:02.413Z,100650.62
2022-07-28T12:02:33.500Z,100649.93
2022-07-28T12:05:09.909Z,100647.64
2022-07-28T12:07:51.129Z,100641.81
2022-07-28T12:10:52.270Z,100644.42
2022-07-28T12:13:17.006Z,100640.83
2022-07-28T12:15:52.623Z,100641.91
2022-07-28T12:18:24.866Z,100644.67
2022-07-28T12:20:56.185Z,100646.27
2022-07-28T12:23:39.049Z,100641.92
2022-07-28T12:26:40.785Z,100637.37
2022-07-28T12:29:14.226Z,100636.53
2022-07-28T12:31:54.378Z,100636.92
2022-07-28T12:34:28.935Z,100630.52
2022-07-28T12:37:02.495Z,100629.60
2022-07-28T12:39:34.643Z,100630.98
2022-07-28T12:42:06.693Z,100623.24
2022-07-28T12:44:38.566Z,100618.92
2022-07-28T12:47:09.780Z,100617.73
2022-07-28T12:49:41.160Z,100617.66
2022-07-28T12:52:21.589Z,100614.20
2022-07-28T12:54:55.700Z,100617.76
2022-07-28T12:57:49.417Z,100615.84
2022-07-28T13:00:22.583Z,100612.44
2022-07-28T13:02:56.058Z,100607.08
2022-07-28T13:05:54.417Z,100608.45
2022-07-28T13:08:27.658Z,100603.50
2022-07-28T13:11:00.469Z,100606.26
2022-07-28T13:13:31.589Z,100604.99
2022-07-28T13:16:15.693Z,100596.40
2022-07-28T13:18:47.038Z,100592.49
2022-07-28T13:21:17.587Z,100594.27
2022-07-28T13:23:48.324Z,100585.52
2022-07-28T13:26:18.972Z,100583.23
2022-07-28T13:28:49.637Z,100584.95
2022-07-28T13:31:20.407Z,100575.99
2022-07-28T13:33:51.157Z,100573.17
2022-07-28T13:36:22.338Z,100563.95
2022-07-28T13:38:52.985Z,100570.04
2022-07-28T13:41:23.634Z,100566.77
2022-07-28T13:43:57.288Z,100559.81
2022-07-28T13:46:28.080Z,100560.14
2022-07-28T13:49:00.468Z,100557.79
2022-07-28T13:51:31.326Z,100565.28
2022-07-28T13:54:05.686Z,100563.17
2022-07-28T13:56:43.128Z,100558.63
2022-07-28T13:59:14.088Z,100562.04
2022-07-28T14:01:49.724Z,100563.11
2022-07-28T14:04:21.641Z,100563.02
2022-07-28T14:06:52.973Z,100565.13
2022-07-28T14:09:23.631Z,100565.67
2022-07-28T14:11:54.380Z,100568.48
2022-07-28T14:14:25.777Z,100569.56
2022-07-28T14:16:56.612Z,100569.05
2022-07-28T14:19:39.566Z,100575.72
2022-07-28T14:22:13.596Z,100571.99
2022-07-28T14:24:44.909Z,100575.53
2022-07-28T14:27:15.610Z,100580.94
2022-07-28T14:29:47.203Z,100576.31
2022-07-28T14:32:17.832Z,100579.79
2022-07-28T14:34:48.600Z,100581.65
2022-07-28T14:37:19.511Z,100574.52
2022-07-28T14:39:50.204Z,100575.13
2022-07-28T14:42:20.868Z,100572.75
2022-07-28T14:44:51.523Z,100575.62
2022-07-28T14:47:22.421Z,100571.27
2022-07-28T14:49:58.324Z,100564.30
2022-07-28T14:52:29.587Z,100560.35
2022-07-28T14:55:00.271Z,100561.66
2022-07-28T14:57:48.205Z,100566.30
2022-07-28T15:00:22.102Z,100566.11
2022-07-28T15:02:53.235Z,100566.48
2022-07-28T15:05:24.205Z,100564.36
2022-07-28T15:07:54.887Z,100564.92
2022-07-28T15:10:25.553Z,100570.86
2022-07-28T15:12:56.901Z,100564.33
2022-07-28T15:15:27.722Z,100568.73
2022-07-28T15:17:58.594Z,100564.47
2022-07-28T15:20:29.387Z,100569.42
2022-07-28T15:22:59.992Z,100570.84
2022-07-28T15:25:30.842Z,100561.02
2022-07-28T15:28:01.994Z,100561.75
2022-07-28T15:30:32.695Z,100554.58
2022-07-28T15:33:07.119Z,100556.64
2022-07-28T15:35:58.422Z,100555.14
2022-07-28T15:38:29.136Z,100552.30
2022-07-28T15:41:00.408Z,100553.60
2022-07-28T15:43:32.923Z,100553.38
2022-07-28T15:46:06.245Z,100557.73
2022-07-28T15:48:37.018Z,100553.88
2022-07-28T15:51:08.053Z,100555.19
2022-07-28T15:53:38.730Z,100553.31
2022-07-28T15:56:09.464Z,100555.09
2022-07-28T15:58:40.893Z,100566.36
2022-07-28T16:01:11.543Z,100569.58
2022-07-28T16:03:42.413Z,100573.67
2022-07-28T16:06:13.189Z,100580.08
2022-07-28T16:08:43.849Z,100579.88
2022-07-28T16:11:14.832Z,100588.81
2022-07-28T16:13:45.746Z,100598.11
2022-07-28T16:16:16.796Z,100609.43
2022-07-28T16:18:47.539Z,100613.78
2022-07-28T16:21:19.020Z,100619.13
2022-07-28T16:23:49.665Z,100622.14
2022-07-28T16:26:20.428Z,100623.16
2022-07-28T16:28:51.277Z,100626.13
2022-07-28T16:31:22.044Z,100625.60
2022-07-28T16:33:52.754Z,100630.48
2022-07-28T16:36:23.477Z,100636.69
2022-07-28T16:38:54.113Z,100642.27
2022-07-28T16:41:25.364Z,100645.96
2022-07-28T16:44:16.441Z,100656.11
2022-07-28T16:46:47.527Z,100665.98
2022-07-28T16:49:18.352Z,100670.05
2022-07-28T16:51:49.142Z,100671.05
2022-07-28T16:54:20.538Z,100674.06
2022-07-28T16:56:51.595Z,100679.08
2022-07-28T16:59:22.671Z,100680.30
2022-07-28T17:01:53.552Z,100687.08
2022-07-28T17:04:24.407Z,100685.73
2022-07-28T17:06:55.522Z,100687.66
2022-07-28T17:09:26.271Z,100685.17
2022-07-28T17:11:57.003Z,100689.08
2022-07-28T17:14:27.815Z,100691.61
2022-07-28T17:16:58.659Z,100699.21
2022-07-28T17:19:32.805Z,100702.44
2022-07-28T17:22:07.088Z,100697.56
2022-07-28T17:24:37.787Z,100699.21
2022-07-28T17:29:59.470Z,100693.15
2022-07-28T17:32:30.277Z,100690.71
2022-07-28T17:35:01.181Z,100698.99
2022-07-28T17:37:32.393Z,100702.65
2022-07-28T17:40:04.605Z,100705.86
2022-07-28T17:42:35.707Z,100705.54
2022-07-28T17:45:06.895Z,100705.58
2022-07-28T17:47:39.967Z,100707.94
2022-07-28T17:50:13.222Z,100707.10
2022-07-28T17:52:44.517Z,100708.90
2022-07-28T17:55:41.243Z,100706.63
2022-07-28T17:58:28.192Z,100714.79
2022-07-28T18:01:10.598Z,100719.39
2022-07-28T18:03:56.817Z,100720.95
2022-07-28T18:06:32.542Z,100728.87
2022-07-28T18:09:06.458Z,100732.59
2022-07-28T18:11:57.585Z,100738.59
2022-07-28T18:14:29.989Z,100742.16
2022-07-28T18:17:01.113Z,100745.52
2022-07-28T18:19:32.085Z,100746.55
2022-07-28T18:22:02.837Z,100752.83
2022-07-28T18:24:33.623Z,100761.20
2022-07-28T18:27:05.450Z,100763.15
2022-07-28T18:29:38.488Z,100766.58
2022-07-28T18:32:12.321Z,100770.36
2022-07-28T18:34:45.550Z,100777.95
2022-07-28T18:37:16.460Z,100781.84
2022-07-28T18:39:47.323Z,100783.14
2022-07-28T18:42:18.222Z,100786.83
2022-07-28T18:44:49.239Z,100784.67
2022-07-28T18:47:20.959Z,100786.71
2022-07-28T18:49:52.724Z,100784.68
2022-07-28T18:52:24.438Z,100784.96
2022-07-28T18:54:55.862Z,100792.77
2022-07-28T18:57:26.759Z,100790.08
2022-07-28T18:59:57.402Z,100791.36
2022-07-28T19:02:28.178Z,100792.98
2022-07-28T19:04:59.260Z,100795.23
2022-07-28T19:07:29.969Z,100795.23
2022-07-28T19:10:01.109Z,100799.70
2022-07-28T19:12:31.794Z,100800.73
2022-07-28T19:15:02.437Z,100795.13
2022-07-28T19:17:34.119Z,100798.73
2022-07-28T19:20:08.078Z,100790.52
2022-07-28T19:22:38.760Z,100784.63
2022-07-28T19:25:10.312Z,100781.84
2022-07-28T19:27:40.980Z,100780.52
2022-07-28T19:30:12.415Z,100782.37
2022-07-28T19:32:43.108Z,100782.98
2022-07-28T19:35:14.004Z,100776.17
2022-07-28T19:37:44.932Z,100768.52
2022-07-28T19:40:15.764Z,100762.88
2022-07-28T19:42:48.567Z,100772.67
2022-07-28T19:45:20.242Z,100772.85
2022-07-28T19:47:50.984Z,100773.27
2022-07-28T19:50:21.885Z,100773.34
2022-07-28T19:52:52.613Z,100772.48
2022-07-28T19:55:24.220Z,100769.81
2022-07-28T19:57:55.958Z,100769.08
2022-07-28T20:00:26.771Z,100764.67
2022-07-28T20:02:57.498Z,100768.57
2022-07-28T20:05:28.597Z,100775.15
2022-07-28T20:07:59.323Z,100777.42
2022-07-28T20:10:30.108Z,100786.14
2022-07-28T20:13:00.814Z,100792.15
2022-07-28T20:15:31.661Z,100794.27
2022-07-28T20:18:02.838Z,100798.64
2022-07-28T20:20:33.573Z,100800.65
2022-07-28T20:23:04.394Z,100798.98
2022-07-28T20:25:35.127Z,100800.73
2022-07-28T20:28:06.233Z,100804.39
2022-07-28T20:30:36.882Z,100806.52
2022-07-28T20:33:08.406Z,100802.51
2022-07-28T20:35:39.311Z,100803.11
2022-07-28T20:38:10.007Z,100800.33
2022-07-28T20:40:40.625Z,100799.73
2022-07-28T20:43:11.536Z,100801.14
2022-07-28T20:45:42.381Z,100807.20
2022-07-28T20:48:14.448Z,100810.27
2022-07-28T20:50:45.506Z,100813.59
2022-07-28T20:53:16.274Z,100816.59
2022-07-28T20:55:46.994Z,100815.67
2022-07-28T20:58:17.685Z,100816.44
2022-07-28T21:00:49.316Z,100820.02
2022-07-28T21:03:21.574Z,100824.55
2022-07-28T21:05:52.335Z,100829.85
2022-07-28T21:08:23.033Z,100828.14
2022-07-28T21:10:54.204Z,100826.32
2022-07-28T21:13:24.942Z,100822.48
2022-07-28T21:15:55.663Z,100826.89
2022-07-28T21:18:26.407Z,100827.16
2022-07-28T21:20:57.243Z,100829.85
2022-07-28T21:23:28.025Z,100832.69
2022-07-28T21:25:58.861Z,100836.98
2022-07-28T21:28:47.212Z,100840.69
2022-07-28T21:31:18.010Z,100849.36
2022-07-28T21:33:48.903Z,100847.93
2022-07-28T21:36:19.675Z,100847.89
2022-07-28T21:38:50.398Z,100848.10
2022-07-28T21:41:25.421Z,100845.64
2022-07-28T21:44:00.806Z,100849.64
2022-07-28T21:46:34.555Z,100855.38
2022-07-28T21:49:05.870Z,100859.51
2022-07-28T21:51:36.663Z,100859.98
2022-07-28T21:54:07.406Z,100861.95
2022-07-28T21:56:38.097Z,100856.54
2022-07-28T21:59:08.755Z,100857.17
2022-07-28T22:01:39.542Z,100858.40
2022-07-28T22:04:10.218Z,100853.34
2022-07-28T22:06:40.849Z,100849.55
2022-07-28T22:09:16.791Z,100844.45
2022-07-28T22:11:47.522Z,100841.11
2022-07-28T22:14:18.661Z,100843.90
2022-07-28T22:16:50.809Z,100846.08
2022-07-28T22:19:21.610Z,100853.74
2022-07-28T22:21:54.126Z,100859.23
2022-07-28T22:24:25.149Z,100868.92
2022-07-28T22:26:55.849Z,100873.02
2022-07-28T22:29:26.486Z,100870.77
2022-07-28T22:31:59.385Z,100878.41
2022-07-28T22:34:30.734Z,100880.73
2022-07-28T22:37:11.184Z,100885.17
2022-07-28T22:39:43.717Z,100883.05
2022-07-28T22:42:14.436Z,100880.77
2022-07-28T22:44:45.184Z,100884.09
2022-07-28T22:47:15.863Z,100881.35
2022-07-28T22:49:46.512Z,100879.63
2022-07-28T22:52:17.262Z,100882.40
2022-07-28T22:54:47.921Z,100878.06
2022-07-28T22:57:18.650Z,100874.04
2022-07-28T22:59:51.166Z,100872.76
2022-07-28T23:02:22.200Z,100872.38
2022-07-28T23:04:52.842Z,100875.27
2022-07-28T23:07:51.106Z,100874.79
2022-07-28T23:10:14.223Z,100876.27
2022-07-28T23:12:44.864Z,100880.52
2022-07-28T23:15:15.539Z,100879.14
2022-07-28T23:17:46.263Z,100878.30
2022-07-28T23:20:16.970Z,100876.42
2022-07-28T23:22:47.646Z,100877.94
2022-07-28T23:25:18.411Z,100876.38
2022-07-28T23:27:49.175Z,100873.91
2022-07-28T23:30:19.977Z,100871.81
2022-07-28T23:32:52.739Z,100873.21
2022-07-28T23:35:23.421Z,100866.66
2022-07-28T23:37:54.242Z,100862.21
2022-07-28T23:40:25.037Z,100861.83
2022-07-28T23:42:55.734Z,100856.74
2022-07-28T23:45:26.532Z,100847.88
2022-07-28T23:47:59.031Z,100845.28
2022-07-28T23:50:29.883Z,100838.15
2022-07-28T23:53:00.657Z,100832.61
2022-07-28T23:55:31.297Z,100829.08
2022-07-28T23:58:01.995Z,100828.59
